Time;durP1;ratioP1;P1;durP2;ratioP2;P2;SDS_P1;SDS_P2;PMS_P1;PMS_P2;Temp;Humidity;BMP_temperature;BMP_pressure;BME280_temperature;BME280_humidity;BME280_pressure;Samples;Min_cycle;Max_cycle;Signal;HPM_P1;HPM_P2
2022/11/19 00:01:57;;;;;;;;;;;;;;;9.23;72.37;94446.09;4991047;28;20014;-73
2022/11/19 00:04:22;;;;;;;;;;;;;;;9.17;72.60;94442.03;5008626;28;20014;-73
2022/11/19 00:06:49;;;;;;;;;;;;;;;9.16;73.16;94446.53;5024966;28;20010;-71
2022/11/19 00:09:15;;;;;;;;;;;;;;;9.21;72.49;94435.75;5024346;28;20014;-73
2022/11/19 00:14:24;;;;;;;;;;;;;;;8.84;73.50;94434.47;5008211;28;20529;-74
2022/11/19 00:16:49;;;;;;;;;;;;;;;9.54;72.43;94430.78;5008096;28;20018;-72
2022/11/19 00:19:14;;;;;;;;;;;;;;;9.94;72.10;94427.91;5009214;28;20007;-72
2022/11/19 00:21:39;;;;;;;;;;;;;;;9.91;71.42;94425.88;5009729;28;20010;-72
2022/11/19 00:24:05;;;;;;;;;;;;;;;9.93;70.23;94429.00;5010021;28;20006;-73
2022/11/19 00:26:31;;;;;;;;;;;;;;;9.76;69.87;94432.44;5007840;28;20010;-74
2022/11/19 00:28:56;;;;;;;;;;;;;;;9.45;72.05;94432.66;4992104;28;20471;-74
2022/11/19 00:31:21;;;;;;;;;;;;;;;9.66;71.12;94439.97;4989991;28;20062;-73
2022/11/19 00:33:49;;;;;;;;;;;;;;;9.48;71.93;94432.03;5008813;28;20100;-72
2022/11/19 00:36:14;;;;;;;;;;;;;;;9.57;71.25;94430.16;5007481;28;20069;-74
2022/11/19 00:38:39;;;;;;;;;;;;;;;9.36;71.52;94429.22;4992131;28;20007;-73
2022/11/19 00:41:05;;;;;;;;;;;;;;;9.52;71.96;94430.31;5024185;28;20021;-73
2022/11/19 00:43:45;;;;;;;;;;;;;;;9.58;72.10;94423.75;5008523;28;20010;-74
2022/11/19 00:46:11;;;;;;;;;;;;;;;9.69;71.82;94424.19;5004393;28;20033;-73
2022/11/19 00:48:39;;;;;;;;;;;;;;;9.78;71.86;94434.81;4990717;28;20682;-73
2022/11/19 00:51:06;;;;;;;;;;;;;;;9.47;71.64;94429.66;5013827;28;20085;-73
2022/11/19 00:53:31;;;;;;;;;;;;;;;9.41;71.95;94433.59;5009607;28;20014;-73
2022/11/19 00:56:00;;;;;;;;;;;;;;;9.61;71.96;94430.28;5025437;28;20014;-73
2022/11/19 00:58:26;;;;;;;;;;;;;;;9.54;71.94;94430.00;5033005;28;20016;-72
2022/11/19 01:00:51;;;;;;;;;;;;;;;9.31;72.27;94421.41;5024986;28;20022;-73
2022/11/19 01:03:16;;;;;;;;;;;;;;;9.52;72.95;94430.31;4995188;28;20485;-71
2022/11/19 01:05:41;;;;;;;;;;;;;;;9.64;72.23;94427.00;5011912;28;20060;-73
2022/11/19 01:08:06;;;;;;;;;;;;;;;9.74;71.86;94426.69;4995069;28;20010;-74
2022/11/19 01:10:33;;;;;;;;;;;;;;;9.75;71.71;94432.78;5010661;28;20014;-73
2022/11/19 01:15:42;;;;;;;;;;;;;;;9.41;71.22;94437.00;5010813;28;20374;-72
2022/11/19 01:18:07;;;;;;;;;;;;;;;9.46;71.81;94441.38;5012852;28;20006;-72
2022/11/19 01:20:32;;;;;;;;;;;;;;;8.65;71.87;94437.44;5022733;28;20364;-75
2022/11/19 01:22:57;;;;;;;;;;;;;;;8.84;73.59;94434.47;4992645;28;20011;-72
2022/11/19 01:25:22;;;;;;;;;;;;;;;8.58;73.03;94437.06;5003692;28;20072;-72
2022/11/19 01:27:48;;;;;;;;;;;;;;;9.17;72.41;94439.38;5027738;28;20096;-73
2022/11/19 01:30:13;;;;;;;;;;;;;;;9.31;71.82;94443.41;5003346;28;20487;-72
2022/11/19 01:32:39;;;;;;;;;;;;;;;8.98;71.73;94447.63;4994005;28;20014;-73
2022/11/19 01:35:04;;;;;;;;;;;;;;;9.13;72.67;94441.09;5011080;28;20483;-73
2022/11/19 01:37:29;;;;;;;;;;;;;;;9.51;71.80;94441.22;5011265;28;20011;-72
2022/11/19 01:39:55;;;;;;;;;;;;;;;9.27;72.46;94447.03;5012301;28;20010;-72
2022/11/19 01:45:32;;;;;;;;;;;;;;;9.58;71.72;94449.53;5010861;28;20148;-72
2022/11/19 01:48:00;;;;;;;;;;;;;;;9.43;70.69;94445.47;4994190;28;20484;-73
2022/11/19 01:50:26;;;;;;;;;;;;;;;9.21;71.58;94443.72;5011752;28;20049;-73
2022/11/19 01:52:51;;;;;;;;;;;;;;;9.69;71.33;94456.06;5011441;28;20019;-73
2022/11/19 01:55:17;;;;;;;;;;;;;;;9.43;70.70;94448.13;5010991;28;20398;-73
2022/11/19 01:57:43;;;;;;;;;;;;;;;9.34;71.50;94452.63;5012429;28;20148;-73
2022/11/19 02:00:09;;;;;;;;;;;;;;;9.45;70.24;94450.44;5009897;28;20089;-73
2022/11/19 02:02:34;;;;;;;;;;;;;;;9.70;70.28;94454.19;5011979;28;20374;-72
2022/11/19 02:05:00;;;;;;;;;;;;;;;9.88;70.87;94456.50;4978649;28;20018;-71
2022/11/19 02:07:28;;;;;;;;;;;;;;;10.23;71.27;94459.06;5010247;28;20561;-73
2022/11/19 02:09:58;;;;;;;;;;;;;;;10.43;71.37;94451.50;5010999;28;20006;-72
2022/11/19 02:12:33;;;;;;;;;;;;;;;10.48;71.03;94460.09;5007271;28;20192;-73
2022/11/19 02:14:58;;;;;;;;;;;;;;;10.40;70.88;94461.69;5010220;28;20010;-72
2022/11/19 02:17:34;;;;;;;;;;;;;;;10.35;70.92;94451.25;5010822;28;20018;-74
2022/11/19 02:20:14;;;;;;;;;;;;;;;10.21;70.25;94442.66;5010797;28;20009;-72
2022/11/19 02:22:39;;;;;;;;;;;;;;;10.28;71.12;94447.50;4993690;28;20056;-73
2022/11/19 02:25:04;;;;;;;;;;;;;;;9.85;71.37;94451.81;4992689;28;20018;-72
2022/11/19 02:27:33;;;;;;;;;;;;;;;9.93;70.18;94452.09;4993761;28;20104;-73
2022/11/19 02:30:06;;;;;;;;;;;;;;;10.05;70.31;94454.91;5010991;28;20481;-72
2022/11/19 02:32:48;;;;;;;;;;;;;;;10.29;70.90;94454.41;4993856;28;20018;-73
2022/11/19 02:35:17;;;;;;;;;;;;;;;9.81;71.02;94458.06;5008957;28;20021;-73
2022/11/19 02:37:43;;;;;;;;;;;;;;;10.08;70.85;94454.25;5008749;28;20164;-73
2022/11/19 02:40:11;;;;;;;;;;;;;;;10.05;71.63;94453.03;4992245;28;20496;-72
2022/11/19 02:42:45;;;;;;;;;;;;;;;10.12;71.22;94450.66;5001432;28;20388;-73
2022/11/19 02:45:15;;;;;;;;;;;;;;;10.28;71.13;94455.47;5009920;28;20006;-72
2022/11/19 02:47:44;;;;;;;;;;;;;;;10.38;70.74;94455.13;4977568;28;20011;-72
2022/11/19 02:50:17;;;;;;;;;;;;;;;10.56;70.63;94461.16;5010329;28;20466;-73
2022/11/19 02:52:43;;;;;;;;;;;;;;;10.57;69.98;94460.84;4991128;28;20018;-73
2022/11/19 02:55:13;;;;;;;;;;;;;;;10.65;70.08;94451.28;4992316;28;20018;-73
2022/11/19 02:57:39;;;;;;;;;;;;;;;10.67;70.43;94454.38;5005204;28;20415;-72
2022/11/19 03:05:39;;;;;;;;;;;;;;;10.56;69.40;94469.16;4992635;28;20021;-72
2022/11/19 03:08:05;;;;;;;;;;;;;;;10.58;69.30;94469.59;5010804;28;20042;-73
2022/11/19 03:10:35;;;;;;;;;;;;;;;10.26;69.69;94469.09;5023771;28;20072;-72
2022/11/19 03:16:40;;;;;;;;;;;;;;;10.46;69.81;94470.28;5010713;28;20049;-71
2022/11/19 03:18:42;;;;;;;;;;;;;;;10.76;70.24;94483.63;5007419;28;20537;-72
2022/11/19 03:21:13;;;;;;;;;;;;;;;10.81;69.83;94486.09;4991718;28;20060;-72
2022/11/19 03:23:41;;;;;;;;;;;;;;;10.85;70.36;94489.66;5009555;28;20018;-72
2022/11/19 03:26:17;;;;;;;;;;;;;;;10.59;70.14;94487.09;5009964;28;20003;-72
2022/11/19 03:28:44;;;;;;;;;;;;;;;10.75;70.75;94493.47;5008137;28;20025;-72
2022/11/19 03:31:10;;;;;;;;;;;;;;;10.81;70.29;94492.19;5024186;28;20033;-72
2022/11/19 03:33:38;;;;;;;;;;;;;;;10.88;70.03;94489.78;4991854;28;20471;-72
2022/11/19 03:36:09;;;;;;;;;;;;;;;10.88;70.56;94491.69;5009301;28;20069;-72
2022/11/19 03:38:37;;;;;;;;;;;;;;;10.60;68.85;94488.69;5023773;28;20011;-72
2022/11/19 03:41:05;;;;;;;;;;;;;;;10.06;67.67;94491.00;5009731;28;20073;-71
2022/11/19 03:43:32;;;;;;;;;;;;;;;9.92;67.55;94493.81;5009218;28;20025;-72
2022/11/19 03:46:00;;;;;;;;;;;;;;;9.50;69.85;94493.53;5023849;28;20019;-72
2022/11/19 03:48:26;;;;;;;;;;;;;;;9.86;70.91;94495.09;4992169;28;20010;-73
2022/11/19 03:50:54;;;;;;;;;;;;;;;9.91;71.19;94494.94;5009025;28;20078;-72
2022/11/19 03:53:20;;;;;;;;;;;;;;;9.98;70.82;94494.44;5010177;28;20502;-72
2022/11/19 03:55:49;;;;;;;;;;;;;;;9.73;68.41;94496.84;5009104;28;20112;-72
2022/11/19 03:58:14;;;;;;;;;;;;;;;9.31;69.25;94498.38;5024372;28;20017;-72
2022/11/19 04:00:39;;;;;;;;;;;;;;;9.19;69.45;94492.91;4991229;28;20014;-73
2022/11/19 04:03:04;;;;;;;;;;;;;;;8.71;69.66;94499.81;5010122;28;20375;-72
2022/11/19 04:05:29;;;;;;;;;;;;;;;8.96;69.76;94494.91;5008870;28;20014;-72
2022/11/19 04:07:55;;;;;;;;;;;;;;;9.37;71.25;94489.97;5010087;28;20010;-72
2022/11/19 04:10:20;;;;;;;;;;;;;;;9.39;69.12;94494.94;5008583;28;20006;-72
2022/11/19 04:12:45;;;;;;;;;;;;;;;9.28;69.41;94496.34;5009927;28;20064;-72
2022/11/19 04:15:11;;;;;;;;;;;;;;;9.14;69.57;94496.47;4990908;28;20089;-71
2022/11/19 04:17:36;;;;;;;;;;;;;;;9.15;69.31;94500.69;4990392;28;20062;-70
2022/11/19 04:20:02;;;;;;;;;;;;;;;9.18;71.50;94502.75;4972275;28;20018;-71
2022/11/19 04:22:27;;;;;;;;;;;;;;;9.27;70.53;94500.09;5009239;28;20016;-73
2022/11/19 04:24:52;;;;;;;;;;;;;;;9.09;70.54;94501.94;5009511;28;20050;-72
2022/11/19 04:27:17;;;;;;;;;;;;;;;8.52;70.49;94501.94;5008645;28;20010;-72
2022/11/19 04:29:43;;;;;;;;;;;;;;;8.58;72.21;94506.00;5010619;28;20017;-72
2022/11/19 04:32:08;;;;;;;;;;;;;;;8.22;72.60;94508.78;4994087;28;20017;-72
2022/11/19 04:34:34;;;;;;;;;;;;;;;8.12;72.71;94503.72;4995547;28;20352;-72
2022/11/19 04:36:59;;;;;;;;;;;;;;;8.48;73.47;94511.56;5027694;28;20534;-71
2022/11/19 04:39:24;;;;;;;;;;;;;;;8.39;72.84;94508.09;5012484;28;20014;-71
2022/11/19 04:41:49;;;;;;;;;;;;;;;8.66;72.70;94501.84;5013638;28;20010;-72
2022/11/19 04:44:15;;;;;;;;;;;;;;;8.61;72.94;94505.41;5012287;28;20372;-72
2022/11/19 04:46:40;;;;;;;;;;;;;;;8.54;71.81;94505.81;5011273;28;20017;-72
2022/11/19 04:49:05;;;;;;;;;;;;;;;8.72;72.33;94506.69;4995255;28;20014;-71
2022/11/19 04:51:30;;;;;;;;;;;;;;;8.65;71.87;94505.56;5012333;28;20017;-72
2022/11/19 04:53:56;;;;;;;;;;;;;;;8.81;71.87;94506.72;5007985;28;20104;-72
2022/11/19 04:56:21;;;;;;;;;;;;;;;8.48;72.35;94512.34;5007929;28;20490;-72
2022/11/19 04:58:46;;;;;;;;;;;;;;;8.23;72.15;94516.41;4997015;28;20014;-71
2022/11/19 05:01:11;;;;;;;;;;;;;;;8.32;73.22;94513.81;5011812;28;20034;-72
2022/11/19 05:03:37;;;;;;;;;;;;;;;8.15;73.97;94517.16;4994274;28;20014;-72
2022/11/19 05:06:02;;;;;;;;;;;;;;;8.18;73.85;94524.47;4993057;28;20104;-71
2022/11/19 05:08:27;;;;;;;;;;;;;;;8.34;72.88;94530.19;5011887;28;20007;-72
2022/11/19 05:10:52;;;;;;;;;;;;;;;7.65;73.80;94527.88;5012471;28;20022;-71
2022/11/19 05:13:18;;;;;;;;;;;;;;;7.65;74.87;94527.88;5012945;28;20104;-71
2022/11/19 05:15:43;;;;;;;;;;;;;;;7.48;75.65;94527.75;5009524;28;20026;-72
2022/11/19 05:18:08;;;;;;;;;;;;;;;7.20;76.69;94538.38;4995244;28;20105;-72
2022/11/19 05:20:34;;;;;;;;;;;;;;;6.90;78.21;94539.00;5011728;28;20014;-71
2022/11/19 05:22:59;;;;;;;;;;;;;;;7.16;77.41;94536.63;5011265;28;20480;-71
2022/11/19 05:25:24;;;;;;;;;;;;;;;6.75;78.87;94542.72;5015021;28;20018;-71
2022/11/19 05:27:49;;;;;;;;;;;;;;;6.81;77.69;94535.47;4975395;28;20015;-71
2022/11/19 05:30:15;;;;;;;;;;;;;;;6.81;78.40;94538.91;5003529;28;20014;-71
2022/11/19 05:32:40;;;;;;;;;;;;;;;6.97;78.18;94537.53;4994735;28;20041;-71
2022/11/19 05:35:05;;;;;;;;;;;;;;;6.95;79.66;94541.53;5010880;28;20022;-71
2022/11/19 05:37:31;;;;;;;;;;;;;;;6.75;78.73;94535.56;4994141;28;20474;-71
2022/11/19 05:39:56;;;;;;;;;;;;;;;7.33;78.69;94536.03;5011693;28;20072;-71
2022/11/19 05:42:21;;;;;;;;;;;;;;;7.47;77.08;94534.91;5011504;28;20025;-71
2022/11/19 05:44:46;;;;;;;;;;;;;;;7.18;78.02;94534.47;5010689;28;20010;-71
2022/11/19 05:47:13;;;;;;;;;;;;;;;7.80;77.27;94537.34;5010764;28;20021;-71
2022/11/19 05:49:39;;;;;;;;;;;;;;;8.01;75.85;94529.69;5011178;28;20093;-72
2022/11/19 05:52:04;;;;;;;;;;;;;;;8.09;75.79;94528.97;5011238;28;20092;-72
2022/11/19 05:54:29;;;;;;;;;;;;;;;8.28;75.01;94528.75;5012582;28;20010;-71
2022/11/19 05:56:54;;;;;;;;;;;;;;;8.06;74.89;94529.56;5010574;28;20014;-71
2022/11/19 05:59:19;;;;;;;;;;;;;;;8.29;75.23;94525.81;4994848;28;20470;-71
2022/11/19 06:01:45;;;;;;;;;;;;;;;8.22;74.78;94533.41;5011642;28;20498;-71
2022/11/19 06:04:10;;;;;;;;;;;;;;;8.43;74.77;94523.09;5012368;28;20411;-71
2022/11/19 06:06:35;;;;;;;;;;;;;;;8.73;74.74;94532.09;5010486;28;20383;-73
2022/11/19 06:09:00;;;;;;;;;;;;;;;8.58;72.98;94527.22;5011749;28;20104;-72
2022/11/19 06:14:10;;;;;;;;;;;;;;;8.68;74.77;94526.94;5012070;28;20029;-72
2022/11/19 06:16:35;;;;;;;;;;;;;;;8.66;72.81;94544.25;5009910;28;20014;-73
2022/11/19 06:19:00;;;;;;;;;;;;;;;8.83;72.61;94541.66;5011923;28;20081;-72
2022/11/19 06:21:26;;;;;;;;;;;;;;;8.93;72.94;94530.00;5011247;28;20021;-72
2022/11/19 06:23:51;;;;;;;;;;;;;;;9.08;73.95;94522.38;4994320;28;20018;-71
2022/11/19 06:26:26;;;;;;;;;;;;;;;8.76;73.08;94534.16;5010071;28;20015;-72
2022/11/19 06:28:52;;;;;;;;;;;;;;;8.79;73.50;94533.53;5011665;28;20006;-71
2022/11/19 06:31:17;;;;;;;;;;;;;;;9.01;73.15;94537.19;5009917;28;20133;-71
2022/11/19 06:33:42;;;;;;;;;;;;;;;9.25;72.57;94544.72;5011598;28;20111;-73
2022/11/19 06:36:08;;;;;;;;;;;;;;;9.52;72.22;94543.66;4998973;28;20015;-72
2022/11/19 06:38:33;;;;;;;;;;;;;;;9.62;72.60;94538.06;4993488;28;20061;-72
2022/11/19 06:40:58;;;;;;;;;;;;;;;9.46;71.43;94547.56;5010975;28;20014;-73
2022/11/19 06:43:23;;;;;;;;;;;;;;;9.68;72.71;94551.97;5011717;28;20013;-72
2022/11/19 06:45:49;;;;;;;;;;;;;;;9.61;71.12;94547.91;5009266;28;20025;-72
2022/11/19 06:48:14;;;;;;;;;;;;;;;9.96;72.89;94555.88;5011338;28;20104;-72
2022/11/19 06:50:39;;;;;;;;;;;;;;;10.12;72.81;94559.59;5009618;28;20020;-72
2022/11/19 06:53:04;;;;;;;;;;;;;;;10.30;72.15;94562.28;5001841;28;20046;-72
2022/11/19 06:55:29;;;;;;;;;;;;;;;10.39;71.88;94555.84;4994813;28;20036;-72
2022/11/19 06:57:56;;;;;;;;;;;;;;;10.43;71.70;94557.88;5010995;28;20010;-72
2022/11/19 07:00:21;;;;;;;;;;;;;;;10.09;70.46;94562.13;5009592;28;20015;-72
2022/11/19 07:02:47;;;;;;;;;;;;;;;10.26;70.86;94571.97;5010071;28;20061;-72
2022/11/19 07:05:12;;;;;;;;;;;;;;;10.37;71.85;94566.00;5009877;28;20393;-72
2022/11/19 07:07:37;;;;;;;;;;;;;;;10.47;71.99;94572.88;5011094;28;20048;-73
2022/11/19 07:10:03;;;;;;;;;;;;;;;10.58;71.72;94570.66;5011002;28;20010;-73
2022/11/19 07:12:28;;;;;;;;;;;;;;;10.62;70.79;94572.38;4992210;28;20018;-73
2022/11/19 07:14:53;;;;;;;;;;;;;;;10.65;70.42;94574.41;5008714;28;20097;-72
2022/11/19 07:17:18;;;;;;;;;;;;;;;10.63;71.60;94573.13;4992103;28;20109;-72
2022/11/19 07:19:44;;;;;;;;;;;;;;;10.26;69.20;94577.28;5009663;28;20015;-72
2022/11/19 07:22:09;;;;;;;;;;;;;;;10.28;71.17;94578.53;4990243;28;20018;-72
2022/11/19 07:24:34;;;;;;;;;;;;;;;10.47;71.14;94575.53;5010343;28;20021;-72
2022/11/19 07:27:00;;;;;;;;;;;;;;;10.30;70.71;94579.00;5008543;28;20018;-71
2022/11/19 07:29:25;;;;;;;;;;;;;;;10.38;70.92;94580.06;5009654;28;20018;-72
2022/11/19 07:31:52;;;;;;;;;;;;;;;10.08;70.75;94579.13;5009371;28;20021;-72
2022/11/19 07:34:18;;;;;;;;;;;;;;;10.35;71.48;94589.47;5024174;28;20022;-73
2022/11/19 07:36:44;;;;;;;;;;;;;;;10.51;71.06;94587.09;4991384;28;20011;-74
2022/11/19 07:39:09;;;;;;;;;;;;;;;10.65;70.75;94600.22;5008498;28;20014;-72
2022/11/19 07:44:18;;;;;;;;;;;;;;;11.04;70.86;94591.16;5008859;28;20084;-70
2022/11/19 07:46:44;;;;;;;;;;;;;;;11.09;70.15;94590.19;5007741;28;20022;-72
2022/11/19 07:49:09;;;;;;;;;;;;;;;11.15;69.14;94591.56;4991527;28;20359;-72
2022/11/19 07:51:34;;;;;;;;;;;;;;;11.28;69.87;94598.56;5008420;28;20010;-72
2022/11/19 07:53:59;;;;;;;;;;;;;;;11.43;70.12;94598.03;4991726;28;20017;-72
2022/11/19 07:56:25;;;;;;;;;;;;;;;11.57;69.64;94591.69;5009237;28;20433;-73
2022/11/19 07:58:50;;;;;;;;;;;;;;;10.79;67.43;94600.00;5008962;28;20080;-72
2022/11/19 08:01:20;;;;;;;;;;;;;;;11.41;69.46;94591.44;5009067;28;20112;-73
2022/11/19 08:03:46;;;;;;;;;;;;;;;11.22;67.67;94591.09;5008337;28;20105;-71
2022/11/19 08:06:12;;;;;;;;;;;;;;;11.45;68.89;94597.69;5012273;28;20064;-72
2022/11/19 08:08:37;;;;;;;;;;;;;;;11.57;68.61;94602.34;4993573;28;20037;-72
2022/11/19 08:11:06;;;;;;;;;;;;;;;11.85;68.37;94607.97;5027924;28;20019;-71
2022/11/19 08:13:32;;;;;;;;;;;;;;;12.05;68.47;94603.75;4993554;28;20447;-71
2022/11/19 08:15:58;;;;;;;;;;;;;;;12.22;67.71;94606.28;5013074;28;20108;-72
2022/11/19 08:18:25;;;;;;;;;;;;;;;12.38;68.12;94603.78;4992577;28;20014;-71
2022/11/19 08:20:50;;;;;;;;;;;;;;;12.46;67.56;94598.38;4995934;28;20041;-69
2022/11/19 08:23:15;;;;;;;;;;;;;;;12.13;65.86;94605.56;4990655;28;20482;-70
2022/11/19 08:25:41;;;;;;;;;;;;;;;12.00;66.08;94593.28;4993836;28;20011;-70
2022/11/19 08:28:06;;;;;;;;;;;;;;;12.16;66.56;94604.91;5011938;28;20030;-72
2022/11/19 08:30:32;;;;;;;;;;;;;;;12.22;66.65;94606.28;5011505;28;20010;-71
2022/11/19 08:32:59;;;;;;;;;;;;;;;12.19;66.16;94606.94;5028223;28;20868;-70
2022/11/19 08:35:24;;;;;;;;;;;;;;;12.61;67.12;94601.53;5011286;28;20108;-71
2022/11/19 08:37:50;;;;;;;;;;;;;;;12.57;66.39;94600.63;4993746;28;20024;-70
2022/11/19 08:40:15;;;;;;;;;;;;;;;11.58;62.61;94598.56;5012620;28;20045;-70
2022/11/19 08:42:59;;;;;;;;;;;;;;;12.18;65.53;94605.34;5011449;28;20037;-71
2022/11/19 08:45:29;;;;;;;;;;;;;;;10.52;63.87;94604.63;4997157;28;20114;-71
2022/11/19 08:47:54;;;;;;;;;;;;;;;11.37;66.18;94606.53;4996953;28;20064;-72
2022/11/19 08:50:20;;;;;;;;;;;;;;;11.33;65.24;94601.03;4994769;28;20018;-68
2022/11/19 08:52:45;;;;;;;;;;;;;;;11.45;66.63;94600.34;5026107;28;20021;-71
2022/11/19 08:55:11;;;;;;;;;;;;;;;10.44;67.14;94608.09;5011345;28;20073;-74
2022/11/19 08:57:36;;;;;;;;;;;;;;;10.96;67.45;94607.94;5026377;28;20076;-72
2022/11/19 09:00:01;;;;;;;;;;;;;;;9.93;66.99;94607.00;5011707;28;20100;-72
2022/11/19 09:02:27;;;;;;;;;;;;;;;10.16;65.53;94616.34;5003568;28;20483;-75
2022/11/19 09:04:52;;;;;;;;;;;;;;;10.66;64.88;94617.72;5011564;28;20010;-74
2022/11/19 09:07:18;;;;;;;;;;;;;;;10.15;65.33;94612.13;5012075;28;20025;-74
2022/11/19 09:09:43;;;;;;;;;;;;;;;11.07;67.47;94617.13;5010868;28;20422;-74
2022/11/19 09:12:08;;;;;;;;;;;;;;;10.63;62.22;94618.34;4993514;28;20534;-74
2022/11/19 09:14:34;;;;;;;;;;;;;;;10.37;62.81;94613.88;5027367;28;20019;-74
2022/11/19 09:17:00;;;;;;;;;;;;;;;10.51;63.85;94615.56;5005590;28;20768;-75
2022/11/19 09:19:25;;;;;;;;;;;;;;;9.63;64.93;94627.25;5006362;28;20489;-75
2022/11/19 09:21:50;;;;;;;;;;;;;;;10.52;66.35;94622.44;4995049;28;20068;-75
2022/11/19 09:24:15;;;;;;;;;;;;;;;10.13;63.67;94629.47;4994315;28;20328;-75
2022/11/19 09:26:40;;;;;;;;;;;;;;;10.22;62.10;94622.28;5010493;28;20021;-73
2022/11/19 09:29:06;;;;;;;;;;;;;;;11.05;62.85;94629.97;4994175;28;20010;-77
2022/11/19 09:31:31;;;;;;;;;;;;;;;10.43;63.05;94635.75;4990756;28;20014;-72
2022/11/19 09:33:56;;;;;;;;;;;;;;;10.74;61.20;94635.53;5010238;28;20191;-72
2022/11/19 09:36:21;;;;;;;;;;;;;;;10.77;63.84;94636.78;4993295;28;20451;-74
2022/11/19 09:38:47;;;;;;;;;;;;;;;11.65;62.56;94638.78;5010416;28;20013;-72
2022/11/19 09:41:21;;;;;;;;;;;;;;;10.65;60.15;94640.13;5011390;28;20112;-74
2022/11/19 09:44:03;;;;;;;;;;;;;;;11.56;60.65;94644.16;5011996;28;20009;-72
2022/11/19 09:46:43;;;;;;;;;;;;;;;11.33;59.66;94640.22;5011781;28;20010;-72
2022/11/19 09:49:11;;;;;;;;;;;;;;;10.27;61.52;94646.09;4994327;28;20032;-72
2022/11/19 09:51:38;;;;;;;;;;;;;;;9.86;62.80;94670.41;5011354;28;20364;-71
2022/11/19 09:54:10;;;;;;;;;;;;;;;9.61;62.62;94658.63;4992724;28;20101;-72
2022/11/19 09:56:40;;;;;;;;;;;;;;;9.38;62.47;94656.09;5009724;28;20018;-73
2022/11/19 09:59:31;;;;;;;;;;;;;;;9.31;64.66;94654.94;5010439;28;20069;-73
2022/11/19 10:01:57;;;;;;;;;;;;;;;9.43;64.94;94663.13;4988509;28;20018;-76
2022/11/19 10:04:23;;;;;;;;;;;;;;;9.33;65.01;94666.06;4992297;28;20068;-72
2022/11/19 10:07:06;;;;;;;;;;;;;;;9.19;64.25;94662.72;5025388;28;20015;-72
2022/11/19 10:09:43;;;;;;;;;;;;;;;9.74;62.73;94662.28;5010268;28;20014;-73
2022/11/19 10:12:08;;;;;;;;;;;;;;;10.38;61.90;94652.63;5008098;28;20096;-71
2022/11/19 10:14:36;;;;;;;;;;;;;;;10.86;62.34;94650.88;5011356;28;20110;-74
2022/11/19 10:17:14;;;;;;;;;;;;;;;10.02;61.49;94652.91;5010100;28;20010;-74
2022/11/19 10:19:46;;;;;;;;;;;;;;;10.83;59.05;94648.81;5010541;28;20247;-74
2022/11/19 10:22:28;;;;;;;;;;;;;;;11.58;59.53;94647.28;4992382;28;20018;-74
2022/11/19 10:25:01;;;;;;;;;;;;;;;11.08;58.61;94642.66;5009468;28;20101;-72
2022/11/19 10:27:34;;;;;;;;;;;;;;;11.52;57.36;94651.25;4992389;28;20010;-75
2022/11/19 10:30:01;;;;;;;;;;;;;;;11.83;58.61;94642.94;5009314;28;20021;-75
2022/11/19 10:32:34;;;;;;;;;;;;;;;11.21;57.93;94651.53;4992221;28;20019;-76
2022/11/19 10:35:02;;;;;;;;;;;;;;;11.09;59.30;94649.53;5009435;28;20010;-73
2022/11/19 10:37:34;;;;;;;;;;;;;;;11.50;57.31;94652.66;5010386;28;20015;-72
2022/11/19 10:40:07;;;;;;;;;;;;;;;11.29;57.49;94650.72;5009526;28;20010;-72
2022/11/19 10:42:34;;;;;;;;;;;;;;;10.16;60.35;94650.13;4983647;28;20033;-73
2022/11/19 10:45:02;;;;;;;;;;;;;;;10.80;59.57;94646.78;5008925;28;20100;-72
2022/11/19 10:47:31;;;;;;;;;;;;;;;11.13;59.36;94647.78;5010670;28;20061;-72
2022/11/19 10:49:56;;;;;;;;;;;;;;;10.79;59.18;94647.88;5009505;28;20011;-73
2022/11/19 10:52:29;;;;;;;;;;;;;;;10.93;58.92;94651.16;5022385;28;20409;-76
2022/11/19 10:54:58;;;;;;;;;;;;;;;11.29;58.03;94644.59;5013852;28;20113;-75
2022/11/19 10:57:23;;;;;;;;;;;;;;;11.19;58.88;94635.09;5008509;28;20021;-75
2022/11/19 10:59:50;;;;;;;;;;;;;;;10.84;57.89;94634.41;5009981;28;20180;-71
2022/11/19 11:02:21;;;;;;;;;;;;;;;11.01;57.87;94626.41;5008964;28;20061;-70
2022/11/19 11:05:07;;;;;;;;;;;;;;;10.53;58.73;94630.09;5022231;28;20053;-72
2022/11/19 11:07:45;;;;;;;;;;;;;;;10.27;59.68;94630.13;5009980;28;20436;-73
2022/11/19 11:10:23;;;;;;;;;;;;;;;10.43;59.63;94621.69;4994031;28;20021;-71
2022/11/19 11:15:33;;;;;;;;;;;;;;;10.36;59.09;94622.94;5056729;28;20052;-65
2022/11/19 11:18:02;;;;;;;;;;;;;;;11.06;59.98;94620.13;5046961;28;20067;-68
2022/11/19 11:20:28;;;;;;;;;;;;;;;11.52;57.02;94607.84;5045950;28;20099;-68
2022/11/19 11:23:16;;;;;;;;;;;;;;;10.83;58.25;94614.25;5046005;28;20156;-64
2022/11/19 11:25:59;;;;;;;;;;;;;;;10.35;60.37;94613.41;5047720;28;20009;-66
2022/11/19 11:28:24;;;;;;;;;;;;;;;10.59;59.61;94614.75;5066750;28;20017;-68
2022/11/19 11:30:54;;;;;;;;;;;;;;;10.40;60.46;94617.78;5057428;28;20014;-64
2022/11/19 11:33:25;;;;;;;;;;;;;;;10.66;60.28;94612.41;5049923;28;20076;-65
2022/11/19 11:35:51;;;;;;;;;;;;;;;10.85;58.57;94618.16;5043368;28;20009;-64
2022/11/19 11:38:19;;;;;;;;;;;;;;;10.87;60.56;94617.84;5049973;28;20075;-64
2022/11/19 11:40:58;;;;;;;;;;;;;;;10.20;61.00;94613.09;5049012;28;20021;-64
2022/11/19 11:43:23;;;;;;;;;;;;;;;11.27;59.08;94609.53;5049410;28;20067;-65
2022/11/19 11:45:54;;;;;;;;;;;;;;;10.49;59.76;94602.56;5049614;28;20057;-64
2022/11/19 11:48:20;;;;;;;;;;;;;;;11.07;59.31;94613.69;5053513;28;20014;-66
2022/11/19 11:50:46;;;;;;;;;;;;;;;10.17;62.86;94609.16;5046308;28;20079;-67
2022/11/19 11:53:13;;;;;;;;;;;;;;;10.40;61.40;94613.25;5047988;28;20419;-65
2022/11/19 11:55:38;;;;;;;;;;;;;;;11.23;59.91;94597.97;5048276;28;20470;-66
2022/11/19 11:58:24;;;;;;;;;;;;;;;10.50;62.23;94595.41;5047503;28;20021;-66
2022/11/19 12:00:51;;;;;;;;;;;;;;;11.15;61.75;94592.34;5047493;28;20382;-66
2022/11/19 12:03:17;;;;;;;;;;;;;;;10.63;61.40;94597.06;5046658;28;20017;-65
2022/11/19 12:05:49;;;;;;;;;;;;;;;10.23;61.86;94591.16;5046506;28;20026;-66
2022/11/19 12:08:14;;;;;;;;;;;;;;;11.06;60.76;94582.88;5047686;28;20120;-66
2022/11/19 12:10:44;;;;;;;;;;;;;;;10.41;62.57;94582.13;5049929;28;20041;-66
2022/11/19 12:13:36;;;;;;;;;;;;;;;10.18;63.79;94581.47;5047693;28;20022;-69
2022/11/19 12:16:11;;;;;;;;;;;;;;;10.19;63.84;94583.06;5037256;28;20064;-71
2022/11/19 12:18:59;;;;;;;;;;;;;;;11.07;62.22;94582.53;5051817;28;20496;-68
2022/11/19 12:21:24;;;;;;;;;;;;;;;10.09;61.99;94594.78;5035893;28;20022;-66
2022/11/19 12:24:05;;;;;;;;;;;;;;;9.95;62.55;94582.75;5047973;28;20163;-68
2022/11/19 12:26:37;;;;;;;;;;;;;;;9.60;63.80;94577.44;5034816;28;20013;-69
2022/11/19 12:29:25;;;;;;;;;;;;;;;9.29;64.15;94594.22;5049271;28;20014;-68
2022/11/19 12:31:58;;;;;;;;;;;;;;;9.52;63.38;94586.16;5044070;28;20017;-66
2022/11/19 12:34:42;;;;;;;;;;;;;;;9.92;62.19;94581.50;5046571;28;20492;-66
2022/11/19 12:37:26;;;;;;;;;;;;;;;9.79;62.76;94579.78;5046453;28;20013;-67
2022/11/19 12:39:57;;;;;;;;;;;;;;;9.81;61.86;94588.22;5050280;28;20005;-72
2022/11/19 12:42:34;;;;;;;;;;;;;;;10.48;60.42;94589.59;5046651;28;20016;-66
2022/11/19 12:44:59;;;;;;;;;;;;;;;10.66;59.91;94601.78;5049186;28;20005;-67
2022/11/19 12:47:33;;;;;;;;;;;;;;;9.81;60.89;94602.28;5048423;28;20135;-67
2022/11/19 12:50:13;;;;;;;;;;;;;;;10.20;61.75;94594.47;5047723;28;20014;-66
2022/11/19 12:52:57;;;;;;;;;;;;;;;10.49;59.60;94591.94;5051615;28;20063;-67
2022/11/19 12:55:23;;;;;;;;;;;;;;;10.58;59.48;94595.38;5051710;28;20006;-66
2022/11/19 12:58:12;;;;;;;;;;;;;;;9.88;60.02;94596.53;5051293;28;20009;-67
2022/11/19 13:00:41;;;;;;;;;;;;;;;10.23;61.19;94591.16;5047962;28;20014;-71
2022/11/19 13:03:13;;;;;;;;;;;;;;;10.49;60.28;94585.84;5052768;28;20020;-68
2022/11/19 13:05:42;;;;;;;;;;;;;;;10.08;60.18;94595.09;5047513;28;20106;-67
2022/11/19 13:08:12;;;;;;;;;;;;;;;10.68;59.75;94588.94;5033826;28;20013;-67
2022/11/19 13:10:41;;;;;;;;;;;;;;;10.14;60.69;94585.88;5046859;28;20071;-66
2022/11/19 13:13:10;;;;;;;;;;;;;;;9.81;61.72;94591.66;5046585;28;20057;-66
2022/11/19 13:15:42;;;;;;;;;;;;;;;10.48;59.90;94587.72;5051411;28;20119;-66
2022/11/19 13:18:11;;;;;;;;;;;;;;;10.05;60.69;94582.44;5052923;28;20494;-66
2022/11/19 13:20:51;;;;;;;;;;;;;;;9.93;61.84;94588.41;5050046;28;20424;-66